createdAt,value
2019-01-27T00:03:16.833Z,98457.20
2019-01-27T00:07:23.745Z,98451.45
2019-01-27T00:11:30.670Z,98449.44
2019-01-27T00:15:37.846Z,98446.64
2019-01-27T00:19:44.746Z,98431.63
2019-01-27T00:23:51.643Z,98417.33
2019-01-27T00:27:58.465Z,98409.01
2019-01-27T00:32:05.422Z,98396.67
2019-01-27T00:36:12.251Z,98385.43
2019-01-27T00:40:19.772Z,98373.06
2019-01-27T00:44:26.669Z,98359.92
2019-01-27T00:48:33.648Z,98345.19
2019-01-27T00:52:40.542Z,98342.23
2019-01-27T00:56:47.494Z,98340.73
2019-01-27T01:00:54.666Z,98324.34
2019-01-27T01:05:01.543Z,98318.46
2019-01-27T01:09:12.508Z,98292.93
2019-01-27T01:13:19.711Z,98286.24
2019-01-27T01:17:26.708Z,98283.12
2019-01-27T01:21:33.782Z,98273.48
2019-01-27T01:25:40.605Z,98267.98
2019-01-27T01:29:47.559Z,98261.70
2019-01-27T01:33:54.483Z,98246.36
2019-01-27T01:38:01.458Z,98233.81
2019-01-27T01:42:08.502Z,98229.52
2019-01-27T01:46:15.546Z,98224.14
2019-01-27T01:50:22.462Z,98212.80
2019-01-27T01:54:29.296Z,98200.72
2019-01-27T01:58:36.172Z,98201.49
2019-01-27T02:02:43.027Z,98188.25
2019-01-27T02:06:50.923Z,98168.83
2019-01-27T02:10:57.840Z,98164.16
2019-01-27T02:15:06.041Z,98144.05
2019-01-27T02:19:12.958Z,98136.44
2019-01-27T02:23:19.836Z,98121.23
2019-01-27T02:27:26.659Z,98106.83
2019-01-27T02:31:33.573Z,98104.36
2019-01-27T02:35:40.387Z,98096.21
2019-01-27T02:39:47.221Z,98090.35
2019-01-27T02:43:54.169Z,98074.64
2019-01-27T02:48:01.043Z,98057.69
2019-01-27T02:52:07.857Z,98054.61
2019-01-27T02:56:14.690Z,98051.69
2019-01-27T03:00:21.952Z,98045.35
2019-01-27T03:04:28.968Z,98030.19
2019-01-27T03:08:40.345Z,98027.42
2019-01-27T03:12:47.133Z,98018.58
2019-01-27T03:16:55.011Z,98009.88
2019-01-27T03:21:01.929Z,98000.35
2019-01-27T03:25:11.383Z,97990.03
2019-01-27T03:29:19.333Z,97985.33
2019-01-27T03:33:26.244Z,97959.30
2019-01-27T03:37:33.154Z,97965.06
2019-01-27T03:41:40.219Z,97961.08
2019-01-27T03:45:47.142Z,97949.30
2019-01-27T03:49:53.948Z,97951.06
2019-01-27T03:54:02.553Z,97942.75
2019-01-27T03:58:09.516Z,97932.28
2019-01-27T04:02:16.496Z,97923.07
2019-01-27T04:06:23.494Z,97910.49
2019-01-27T04:10:30.583Z,97906.73
2019-01-27T04:14:37.552Z,97902.48
2019-01-27T04:18:44.387Z,97893.95
2019-01-27T04:22:51.258Z,97889.55
2019-01-27T04:26:58.074Z,97882.49
2019-01-27T04:31:05.242Z,97882.13
2019-01-27T04:35:13.331Z,97870.66
2019-01-27T04:39:20.277Z,97870.98
2019-01-27T04:43:27.267Z,97853.64
2019-01-27T04:47:34.361Z,97850.19
2019-01-27T04:51:41.304Z,97848.41
2019-01-27T04:55:48.223Z,97842.66
2019-01-27T04:59:55.029Z,97846.05
2019-01-27T05:04:13.762Z,97852.44
2019-01-27T05:08:20.611Z,97846.53
2019-01-27T05:12:27.608Z,97840.66
2019-01-27T05:16:34.414Z,97825.96
2019-01-27T05:20:41.228Z,97821.83
2019-01-27T05:24:48.072Z,97824.09
2019-01-27T05:28:54.898Z,97814.77
2019-01-27T05:33:01.703Z,97818.42
2019-01-27T05:37:08.476Z,97803.08
2019-01-27T05:41:15.371Z,97808.16
2019-01-27T05:45:22.447Z,97786.74
2019-01-27T05:49:29.320Z,97779.88
2019-01-27T05:53:36.284Z,97777.14
2019-01-27T05:57:43.197Z,97765.48
2019-01-27T06:01:50.222Z,97761.59
2019-01-27T06:05:57.069Z,97751.16
2019-01-27T06:10:04.081Z,97745.41
2019-01-27T06:14:10.980Z,97743.16
2019-01-27T06:18:17.968Z,97740.09
2019-01-27T06:22:24.731Z,97743.38
2019-01-27T06:26:31.647Z,97733.67
2019-01-27T06:30:38.543Z,97731.25
2019-01-27T06:34:45.722Z,97727.16
2019-01-27T06:38:52.696Z,97714.26
2019-01-27T06:42:59.659Z,97728.31
2019-01-27T06:47:06.689Z,97715.09
2019-01-27T06:51:13.668Z,97714.16
2019-01-27T06:55:20.811Z,97704.61
2019-01-27T06:59:32.634Z,97699.89
2019-01-27T07:03:47.582Z,97698.70
2019-01-27T07:08:03.818Z,97684.52
2019-01-27T07:12:29.991Z,97687.78
2019-01-27T07:16:59.118Z,97689.28
2019-01-27T07:21:23.416Z,97671.75
2019-01-27T07:26:03.693Z,97675.87
2019-01-27T07:30:32.603Z,97668.38
2019-01-27T07:35:04.325Z,97664.42
2019-01-27T07:39:34.098Z,97661.51
2019-01-27T07:43:59.016Z,97654.02
2019-01-27T07:48:11.688Z,97656.16
2019-01-27T07:52:40.803Z,97647.81
2019-01-27T07:57:05.094Z,97653.72
2019-01-27T08:01:42.928Z,97643.22
2019-01-27T08:05:58.638Z,97639.45
2019-01-27T08:10:22.986Z,97635.86
2019-01-27T08:14:53.230Z,97640.64
2019-01-27T08:19:19.074Z,97638.34
2019-01-27T08:23:33.117Z,97625.58
2019-01-27T08:27:52.085Z,97619.37
2019-01-27T08:32:09.577Z,97616.77
2019-01-27T08:36:34.417Z,97604.84
2019-01-27T08:41:03.617Z,97604.99
2019-01-27T08:45:33.255Z,97600.09
2019-01-27T08:49:40.177Z,97595.84
2019-01-27T08:53:47.038Z,97584.38
2019-01-27T08:57:53.862Z,97579.48
2019-01-27T09:02:18.161Z,97573.75
2019-01-27T09:06:50.889Z,97577.52
2019-01-27T09:11:16.688Z,97566.71
2019-01-27T09:15:46.100Z,97558.67
2019-01-27T09:20:18.218Z,97565.57
2019-01-27T09:24:36.619Z,97566.54
2019-01-27T09:29:01.357Z,97559.67
2019-01-27T09:33:27.296Z,97558.53
2019-01-27T09:37:49.813Z,97555.56
2019-01-27T09:42:18.613Z,97559.81
2019-01-27T09:46:40.795Z,97545.73
2019-01-27T09:51:15.911Z,97553.91
2019-01-27T09:55:44.840Z,97549.15
2019-01-27T10:00:09.044Z,97538.48
2019-01-27T10:04:27.377Z,97544.39
2019-01-27T10:08:56.293Z,97533.58
2019-01-27T10:13:09.878Z,97542.42
2019-01-27T10:17:41.655Z,97556.05
2019-01-27T10:21:54.648Z,97545.53
2019-01-27T10:26:26.719Z,97546.84
2019-01-27T10:30:55.769Z,97533.24
2019-01-27T10:35:27.624Z,97536.17
2019-01-27T10:40:09.265Z,97522.22
2019-01-27T10:44:35.925Z,97509.10
2019-01-27T10:48:58.222Z,97504.16
2019-01-27T10:53:20.979Z,97496.45
2019-01-27T10:57:39.944Z,97485.28
2019-01-27T11:02:24.273Z,97489.84
2019-01-27T11:06:59.183Z,97478.56
2019-01-27T11:11:28.217Z,97476.48
2019-01-27T11:15:49.705Z,97458.94
2019-01-27T11:20:14.724Z,97460.13
2019-01-27T11:24:39.167Z,97458.16
2019-01-27T11:28:54.788Z,97449.64
2019-01-27T11:33:21.241Z,97439.19
2019-01-27T11:37:56.329Z,97434.59
2019-01-27T11:42:23.933Z,97419.05
2019-01-27T11:46:45.527Z,97401.97
2019-01-27T11:51:14.112Z,97395.41
2019-01-27T11:55:21.042Z,97402.16
2019-01-27T11:59:48.170Z,97398.66
2019-01-27T12:04:15.549Z,97392.58
2019-01-27T12:08:42.168Z,97388.09
2019-01-27T12:13:07.386Z,97373.81
2019-01-27T12:17:14.413Z,97368.02
2019-01-27T12:21:21.222Z,97361.80
2019-01-27T12:25:28.254Z,97356.20
2019-01-27T12:29:36.088Z,97355.89
2019-01-27T12:33:43.104Z,97357.16
2019-01-27T12:37:50.007Z,97345.41
2019-01-27T12:41:56.919Z,97340.53
2019-01-27T12:46:04.252Z,97342.22
2019-01-27T12:50:14.424Z,97355.96
2019-01-27T12:54:21.626Z,97366.38
2019-01-27T12:58:28.860Z,97354.52
2019-01-27T13:02:36.300Z,97351.05
2019-01-27T13:06:43.425Z,97341.40
2019-01-27T13:10:50.581Z,97341.40
2019-01-27T13:14:57.571Z,97348.98
2019-01-27T13:19:04.871Z,97349.94
2019-01-27T13:23:19.863Z,97340.77
2019-01-27T13:27:28.504Z,97340.42
2019-01-27T13:31:36.697Z,97340.47
2019-01-27T13:35:44.106Z,97335.88
2019-01-27T13:39:51.963Z,97333.62
2019-01-27T13:43:59.696Z,97328.38
2019-01-27T13:48:07.566Z,97326.91
2019-01-27T13:52:14.574Z,97326.41
2019-01-27T13:56:21.522Z,97322.59
2019-01-27T14:00:31.736Z,97311.93
2019-01-27T14:04:38.630Z,97308.36
2019-01-27T14:08:45.663Z,97306.08
2019-01-27T14:12:52.828Z,97301.13
2019-01-27T14:17:07.579Z,97296.72
2019-01-27T14:21:24.807Z,97298.53
2019-01-27T14:25:37.244Z,97295.41
2019-01-27T14:29:55.011Z,97297.03
2019-01-27T14:34:05.076Z,97298.98
2019-01-27T14:38:21.654Z,97297.86
2019-01-27T14:42:37.696Z,97298.31
2019-01-27T14:46:56.979Z,97300.10
2019-01-27T14:51:10.037Z,97288.59
2019-01-27T14:55:19.719Z,97288.22
2019-01-27T14:59:29.667Z,97292.15
2019-01-27T15:03:36.957Z,97284.28
2019-01-27T15:07:43.948Z,97288.10
2019-01-27T15:11:50.856Z,97279.74
2019-01-27T15:15:57.809Z,97280.20
2019-01-27T15:20:06.152Z,97279.08
2019-01-27T15:24:13.345Z,97281.66
2019-01-27T15:28:20.397Z,97279.97
2019-01-27T15:32:27.416Z,97274.39
2019-01-27T15:36:37.610Z,97269.92
2019-01-27T15:40:45.193Z,97270.08
2019-01-27T15:44:53.526Z,97266.42
2019-01-27T15:49:00.817Z,97261.66
2019-01-27T15:53:08.548Z,97257.73
2019-01-27T15:57:15.708Z,97252.81
2019-01-27T16:01:22.735Z,97251.89
2019-01-27T16:05:30.412Z,97255.16
2019-01-27T16:09:39.451Z,97254.89
2019-01-27T16:13:46.579Z,97258.23
2019-01-27T16:17:53.625Z,97255.30
2019-01-27T16:22:00.501Z,97259.80
2019-01-27T16:26:07.607Z,97255.53
2019-01-27T16:30:44.709Z,97252.50
2019-01-27T16:34:55.949Z,97255.79
2019-01-27T16:39:03.511Z,97252.36
2019-01-27T16:43:13.340Z,97252.22
2019-01-27T16:47:20.458Z,97254.67
2019-01-27T16:51:27.391Z,97252.22
2019-01-27T16:55:34.607Z,97253.37
2019-01-27T16:59:41.637Z,97258.60
2019-01-27T17:03:48.499Z,97255.14
2019-01-27T17:08:44.629Z,97242.34
2019-01-27T17:12:51.749Z,97238.27
2019-01-27T17:16:59.103Z,97246.61
2019-01-27T17:21:06.556Z,97238.26
2019-01-27T17:25:14.078Z,97253.30
2019-01-27T17:29:21.035Z,97252.80
2019-01-27T17:33:28.543Z,97261.21
2019-01-27T17:37:35.584Z,97255.14
2019-01-27T17:41:43.515Z,97264.80
2019-01-27T17:45:50.667Z,97267.42
2019-01-27T17:49:57.592Z,97278.91
2019-01-27T17:54:06.387Z,97292.69
2019-01-27T17:58:39.458Z,97295.97
2019-01-27T18:03:02.761Z,97309.08
2019-01-27T18:07:38.963Z,97308.08
2019-01-27T18:11:53.745Z,97304.20
2019-01-27T18:16:03.864Z,97310.28
2019-01-27T18:20:14.546Z,97325.53
2019-01-27T18:24:21.556Z,97328.64
2019-01-27T18:28:28.667Z,97327.50
2019-01-27T18:32:35.615Z,97338.30
2019-01-27T18:36:42.453Z,97341.92
2019-01-27T18:40:50.397Z,97352.44
2019-01-27T18:44:57.765Z,97352.27
2019-01-27T18:49:05.027Z,97357.99
2019-01-27T18:53:30.009Z,97366.38
2019-01-27T18:58:01.916Z,97376.68
2019-01-27T19:02:27.648Z,97388.65
2019-01-27T19:06:54.912Z,97408.76
2019-01-27T19:11:23.559Z,97417.09
2019-01-27T19:15:42.940Z,97432.00
2019-01-27T19:20:20.726Z,97443.91
2019-01-27T19:24:38.623Z,97460.77
2019-01-27T19:29:04.534Z,97475.80
2019-01-27T19:33:29.268Z,97486.58
2019-01-27T19:37:45.916Z,97499.97
2019-01-27T19:42:08.408Z,97509.16
2019-01-27T19:46:28.647Z,97519.17
2019-01-27T19:51:03.254Z,97530.16
2019-01-27T19:55:29.200Z,97529.61
2019-01-27T20:00:00.811Z,97545.44
2019-01-27T20:04:29.604Z,97553.77
2019-01-27T20:08:58.025Z,97556.86
2019-01-27T20:13:33.239Z,97572.68
2019-01-27T20:18:04.946Z,97586.20
2019-01-27T20:22:29.291Z,97594.20
2019-01-27T20:26:56.643Z,97608.51
2019-01-27T20:31:20.950Z,97626.73
2019-01-27T20:35:52.199Z,97636.63
2019-01-27T20:40:14.981Z,97644.86
2019-01-27T20:44:47.562Z,97651.23
2019-01-27T20:49:13.436Z,97654.21
2019-01-27T20:53:26.041Z,97660.11
2019-01-27T20:57:51.767Z,97670.09
2019-01-27T21:02:21.332Z,97671.81
2019-01-27T21:06:40.180Z,97685.89
2019-01-27T21:11:06.379Z,97687.19
2019-01-27T21:15:44.542Z,97709.59
2019-01-27T21:19:56.128Z,97719.30
2019-01-27T21:24:03.303Z,97721.14
2019-01-27T21:28:13.007Z,97734.78
2019-01-27T21:32:21.637Z,97742.08
2019-01-27T21:36:38.342Z,97742.86
2019-01-27T21:40:49.534Z,97748.41
2019-01-27T21:45:08.097Z,97751.91
2019-01-27T21:49:15.810Z,97759.20
2019-01-27T21:53:23.777Z,97764.42
2019-01-27T21:57:30.744Z,97760.19
2019-01-27T22:01:37.798Z,97771.02
2019-01-27T22:05:44.880Z,97769.17
2019-01-27T22:09:52.284Z,97783.54
2019-01-27T22:13:59.287Z,97786.41
2019-01-27T22:18:07.027Z,97790.16
2019-01-27T22:22:13.870Z,97786.47
2019-01-27T22:26:20.744Z,97801.00
2019-01-27T22:30:27.637Z,97806.67
2019-01-27T22:34:34.646Z,97810.59
2019-01-27T22:38:41.686Z,97813.13
2019-01-27T22:42:48.565Z,97821.65
2019-01-27T22:46:55.425Z,97833.08
2019-01-27T22:51:02.327Z,97826.70
2019-01-27T22:55:09.925Z,97841.05
2019-01-27T22:59:16.800Z,97850.66
2019-01-27T23:03:23.742Z,97850.25
2019-01-27T23:07:30.586Z,97848.86
2019-01-27T23:11:37.469Z,97856.81
2019-01-27T23:15:44.373Z,97859.28
2019-01-27T23:19:51.239Z,97868.43
2019-01-27T23:23:58.072Z,97886.56
2019-01-27T23:28:05.030Z,97881.59
2019-01-27T23:32:11.996Z,97890.73
2019-01-27T23:36:18.886Z,97889.42
2019-01-27T23:40:26.130Z,97895.08
2019-01-27T23:44:32.973Z,97898.85
2019-01-27T23:48:39.864Z,97907.29
2019-01-27T23:52:46.821Z,97896.86
2019-01-27T23:56:53.678Z,97898.04
